Jersey, Illinois
Current Conditions -  °F | °C
As of 11:54 PM on Thursday 27 Nov 2014 (Local Time) from KSET Reporting Station
Clear Clear  
Wind Chill: 14°   Ceiling: Unl
Heat Index: 25°   Visibility: 10mi
Dew Point: 19°   Wind: 12mph
Humidity: 78%   Direction: 110°ESE
Pressure: 30.42"   Gusts: NA
Location:  39.1259°N, 90.3475°W
Report Text: KSET 280554Z AUTO 11010KT 10SM CLR M04/M07 A3042 RMK AO2 SLP305 T10391072 11028 21061 400061061 58009
Loading
Personal Weather Stations






























Interactive Weather Map New forecast layout! Learn more

10-Day Weather Forecast

Advertisements
Track Severe Weather on mobile